createdAt,value
2019-02-22T00:00:51.227Z,30.43
2019-02-22T00:03:19.665Z,30.75
2019-02-22T00:05:48.103Z,31.45
2019-02-22T00:08:16.543Z,34.63
2019-02-22T00:10:45.077Z,34.38
2019-02-22T00:13:13.631Z,34.48
2019-02-22T00:15:42.092Z,32.00
2019-02-22T00:18:10.609Z,31.27
2019-02-22T00:20:41.190Z,33.20
2019-02-22T00:23:09.474Z,29.00
2019-02-22T00:25:38.012Z,34.63
2019-02-22T00:28:06.474Z,35.33
2019-02-22T00:30:34.975Z,37.30
2019-02-22T00:33:03.581Z,33.18
2019-02-22T00:35:32.078Z,32.23
2019-02-22T00:38:00.577Z,32.42
2019-02-22T00:40:29.284Z,37.65
2019-02-22T00:42:57.776Z,33.05
2019-02-22T00:45:26.713Z,35.92
2019-02-22T00:47:55.149Z,32.35
2019-02-22T00:50:23.600Z,29.92
2019-02-22T00:52:52.164Z,39.98
2019-02-22T00:55:20.724Z,35.28
2019-02-22T00:57:49.270Z,32.50
2019-02-22T01:00:18.069Z,29.50
2019-02-22T01:02:46.505Z,32.00
2019-02-22T01:05:21.647Z,33.60
2019-02-22T01:07:52.706Z,28.90
2019-02-22T01:15:55.837Z,29.02
2019-02-22T01:18:24.541Z,28.80
2019-02-22T01:20:54.581Z,30.27
2019-02-22T01:23:23.664Z,41.25
2019-02-22T01:25:52.093Z,32.30
2019-02-22T01:28:21.040Z,31.27
2019-02-22T01:30:49.521Z,30.82
2019-02-22T01:33:18.307Z,35.33
2019-02-22T01:35:46.748Z,30.32
2019-02-22T01:38:15.181Z,31.95
2019-02-22T01:40:44.278Z,29.85
2019-02-22T01:43:12.932Z,33.60
2019-02-22T01:45:41.367Z,30.30
2019-02-22T01:48:09.802Z,30.12
2019-02-22T01:50:38.499Z,25.40
2019-02-22T01:53:06.996Z,32.25
2019-02-22T01:55:35.465Z,29.77
2019-02-22T01:58:03.935Z,26.77
2019-02-22T02:00:32.437Z,26.20
2019-02-22T02:03:00.909Z,26.50
2019-02-22T02:05:29.341Z,31.42
2019-02-22T02:07:58.065Z,28.50
2019-02-22T02:10:26.857Z,34.55
2019-02-22T02:12:55.324Z,33.25
2019-02-22T02:15:23.753Z,31.48
2019-02-22T02:17:52.257Z,29.55
2019-02-22T02:20:20.724Z,28.42
2019-02-22T02:22:49.506Z,28.98
2019-02-22T02:25:17.936Z,30.90
2019-02-22T02:27:46.753Z,31.40
2019-02-22T02:30:15.203Z,31.10
2019-02-22T02:32:43.626Z,31.05
2019-02-22T02:35:12.390Z,30.40
2019-02-22T02:37:41.177Z,34.43
2019-02-22T02:40:09.618Z,32.13
2019-02-22T02:42:38.049Z,29.32
2019-02-22T02:45:06.932Z,31.37
2019-02-22T02:47:35.361Z,36.75
2019-02-22T02:50:04.453Z,36.58
2019-02-22T02:52:32.950Z,33.60
2019-02-22T02:55:01.391Z,35.80
2019-02-22T02:57:29.822Z,35.33
2019-02-22T02:59:58.280Z,33.80
2019-02-22T03:02:27.481Z,33.85
2019-02-22T03:04:55.966Z,32.25
2019-02-22T03:07:35.334Z,32.45
2019-02-22T03:10:04.108Z,33.20
2019-02-22T03:12:32.545Z,31.37
2019-02-22T03:15:00.978Z,31.80
2019-02-22T03:17:29.443Z,31.23
2019-02-22T03:19:57.893Z,30.92
2019-02-22T03:22:26.343Z,24.35
2019-02-22T03:24:55.126Z,32.00
2019-02-22T03:27:23.574Z,33.38
2019-02-22T03:29:52.298Z,21.10
2019-02-22T03:32:20.742Z,37.10
2019-02-22T03:34:49.482Z,31.27
2019-02-22T03:37:18.057Z,39.20
2019-02-22T03:39:46.491Z,34.15
2019-02-22T03:42:15.005Z,27.62
2019-02-22T03:44:43.439Z,31.55
2019-02-22T03:47:11.877Z,37.83
2019-02-22T03:49:40.388Z,35.33
2019-02-22T03:52:10.474Z,37.38
2019-02-22T03:54:39.263Z,26.20
2019-02-22T03:57:07.710Z,28.02
2019-02-22T03:59:36.137Z,37.93
2019-02-22T04:02:04.652Z,38.58
2019-02-22T04:04:33.079Z,28.57
2019-02-22T04:07:01.532Z,36.88
2019-02-22T04:09:30.029Z,35.05
2019-02-22T04:11:58.472Z,32.03
2019-02-22T04:14:26.973Z,20.92
2019-02-22T04:16:55.419Z,31.33
2019-02-22T04:19:23.853Z,26.33
2019-02-22T04:21:52.561Z,30.72
2019-02-22T04:24:20.995Z,26.70
2019-02-22T04:26:49.732Z,25.65
2019-02-22T04:29:18.152Z,25.23
2019-02-22T04:31:46.610Z,24.67
2019-02-22T04:34:15.044Z,16.45
2019-02-22T04:36:43.558Z,20.02
2019-02-22T04:39:11.984Z,14.58
2019-02-22T04:41:40.721Z,19.90
2019-02-22T04:44:09.154Z,17.60
2019-02-22T04:46:37.597Z,13.38
2019-02-22T04:49:06.029Z,20.12
2019-02-22T04:51:34.750Z,25.72
2019-02-22T04:54:03.181Z,14.70
2019-02-22T04:56:31.618Z,20.77
2019-02-22T04:59:00.066Z,26.95
2019-02-22T05:01:28.787Z,32.45
2019-02-22T05:03:57.228Z,37.10
2019-02-22T05:06:25.657Z,36.95
2019-02-22T05:08:54.346Z,39.73
2019-02-22T05:11:22.772Z,34.20
2019-02-22T05:13:51.464Z,35.25
2019-02-22T05:16:19.901Z,38.88
2019-02-22T05:18:48.346Z,38.78
2019-02-22T05:21:17.041Z,37.73
2019-02-22T05:23:45.837Z,28.05
2019-02-22T05:26:14.536Z,29.90
2019-02-22T05:28:43.067Z,31.60
2019-02-22T05:31:11.627Z,34.23
2019-02-22T05:33:40.477Z,38.98
2019-02-22T05:36:08.917Z,32.23
2019-02-22T05:38:37.642Z,28.62
2019-02-22T05:41:06.070Z,28.13
2019-02-22T05:43:34.512Z,34.03
2019-02-22T05:46:03.020Z,33.20
2019-02-22T05:48:31.782Z,31.75
2019-02-22T05:51:00.222Z,32.48
2019-02-22T05:53:28.669Z,31.90
2019-02-22T05:55:57.088Z,35.48
2019-02-22T05:58:25.534Z,33.50
2019-02-22T06:00:53.969Z,22.37
2019-02-22T06:03:22.410Z,24.12
2019-02-22T06:05:50.842Z,30.60
2019-02-22T06:08:19.291Z,34.15
2019-02-22T06:10:47.801Z,26.77
2019-02-22T06:13:16.245Z,34.35
2019-02-22T06:15:44.677Z,40.25
2019-02-22T06:18:13.137Z,32.63
2019-02-22T06:20:41.853Z,41.15
2019-02-22T06:23:10.286Z,36.05
2019-02-22T06:25:38.730Z,39.38
2019-02-22T06:28:07.482Z,34.55
2019-02-22T06:30:36.277Z,35.43
2019-02-22T06:33:04.725Z,35.13
2019-02-22T06:35:33.458Z,37.93
2019-02-22T06:38:01.906Z,34.75
2019-02-22T06:40:30.337Z,33.50
2019-02-22T06:42:58.789Z,37.70
2019-02-22T06:45:27.222Z,36.53
2019-02-22T06:47:55.949Z,41.50
2019-02-22T06:50:33.306Z,39.40
2019-02-22T06:52:54.574Z,44.23
2019-02-22T06:55:23.021Z,45.33
2019-02-22T06:57:51.510Z,35.00
2019-02-22T07:00:19.953Z,40.83
2019-02-22T07:02:48.385Z,40.63
2019-02-22T07:05:16.821Z,37.85
2019-02-22T07:07:45.256Z,45.05
2019-02-22T07:10:13.801Z,43.25
2019-02-22T07:12:43.872Z,44.48
2019-02-22T07:15:12.390Z,47.50
2019-02-22T07:17:41.071Z,47.67
2019-02-22T07:20:11.406Z,43.80
2019-02-22T07:22:40.125Z,46.35
2019-02-22T07:25:11.206Z,45.28
2019-02-22T07:27:39.893Z,43.27
2019-02-22T07:30:11.220Z,45.65
2019-02-22T07:35:09.921Z,48.75
2019-02-22T07:37:38.810Z,52.60
2019-02-22T07:40:07.624Z,47.45
2019-02-22T07:42:36.053Z,47.35
2019-02-22T07:45:06.737Z,46.65
2019-02-22T07:47:35.165Z,41.90
2019-02-22T07:50:04.991Z,46.28
2019-02-22T07:52:33.452Z,45.25
2019-02-22T07:55:01.894Z,46.60
2019-02-22T07:57:30.406Z,46.90
2019-02-22T07:59:58.857Z,45.20
2019-02-22T08:02:27.282Z,49.30
2019-02-22T08:04:55.740Z,45.05
2019-02-22T08:07:24.233Z,46.20
2019-02-22T08:09:52.946Z,43.42
2019-02-22T08:12:21.733Z,45.20
2019-02-22T08:14:50.177Z,37.50
2019-02-22T08:17:18.862Z,42.93
2019-02-22T08:19:47.949Z,47.75
2019-02-22T08:22:16.868Z,43.50
2019-02-22T08:24:45.926Z,48.58
2019-02-22T08:27:14.370Z,46.60
2019-02-22T08:29:43.159Z,47.08
2019-02-22T08:32:11.596Z,46.63
2019-02-22T08:34:40.112Z,45.48
2019-02-22T08:39:30.718Z,43.45
2019-02-22T08:41:59.420Z,44.03
2019-02-22T08:44:27.845Z,45.17
2019-02-22T08:46:56.584Z,41.60
2019-02-22T08:49:25.375Z,43.78
2019-02-22T08:51:53.822Z,44.18
2019-02-22T08:54:22.250Z,44.38
2019-02-22T08:56:51.030Z,41.58
2019-02-22T08:59:19.461Z,43.23
2019-02-22T09:01:47.910Z,45.80
2019-02-22T09:04:16.686Z,41.88
2019-02-22T09:06:45.145Z,41.88
2019-02-22T09:09:13.955Z,44.03
2019-02-22T09:11:42.381Z,41.18
2019-02-22T09:14:10.908Z,42.75
2019-02-22T09:16:39.338Z,43.17
2019-02-22T09:19:07.797Z,46.20
2019-02-22T09:21:36.242Z,43.00
2019-02-22T09:24:05.047Z,41.23
2019-02-22T09:26:33.548Z,42.08
2019-02-22T09:29:01.982Z,41.48
2019-02-22T09:31:30.499Z,41.48
2019-02-22T09:33:58.943Z,41.90
2019-02-22T09:36:27.454Z,46.10
2019-02-22T09:38:56.402Z,42.90
2019-02-22T09:41:25.148Z,43.28
2019-02-22T09:43:55.534Z,42.40
2019-02-22T09:46:24.142Z,45.92
2019-02-22T09:48:52.608Z,45.20
2019-02-22T09:51:21.041Z,41.33
2019-02-22T09:53:49.491Z,39.53
2019-02-22T09:56:18.271Z,45.98
2019-02-22T09:58:47.062Z,43.40
2019-02-22T10:01:15.511Z,44.42
2019-02-22T10:03:43.937Z,41.68
2019-02-22T10:06:12.376Z,35.90
2019-02-22T10:08:40.812Z,42.85
2019-02-22T10:11:09.274Z,40.75
2019-02-22T10:13:37.765Z,39.92
2019-02-22T10:16:06.214Z,43.37
2019-02-22T10:18:34.650Z,37.25
2019-02-22T10:21:03.109Z,42.05
2019-02-22T10:23:31.878Z,40.95
2019-02-22T10:26:00.309Z,45.90
2019-02-22T10:28:28.756Z,42.85
2019-02-22T10:30:57.217Z,46.35
2019-02-22T10:33:35.931Z,43.00
2019-02-22T10:35:55.832Z,45.10
2019-02-22T10:38:24.265Z,42.80
2019-02-22T10:40:52.700Z,41.08
2019-02-22T10:43:21.145Z,32.33
2019-02-22T10:45:49.573Z,40.45
2019-02-22T10:48:18.026Z,39.20
2019-02-22T10:50:46.462Z,42.78
2019-02-22T10:53:15.194Z,40.03
2019-02-22T10:55:43.985Z,42.90
2019-02-22T10:58:12.444Z,41.15
2019-02-22T11:00:40.905Z,38.20
2019-02-22T11:03:09.631Z,39.40
2019-02-22T11:05:38.073Z,38.50
2019-02-22T11:08:06.516Z,43.60
2019-02-22T11:10:35.202Z,45.98
2019-02-22T11:13:03.641Z,42.30
2019-02-22T11:15:32.076Z,40.70
2019-02-22T11:18:00.521Z,43.80
2019-02-22T11:20:29.311Z,43.45
2019-02-22T11:22:57.755Z,42.35
2019-02-22T11:25:26.185Z,41.45
2019-02-22T11:27:54.638Z,41.40
2019-02-22T11:30:23.069Z,40.38
2019-02-22T11:32:51.821Z,41.08
2019-02-22T11:35:20.298Z,36.45
2019-02-22T11:37:48.802Z,41.20
2019-02-22T11:40:17.735Z,43.65
2019-02-22T11:42:46.446Z,40.85
2019-02-22T11:45:14.908Z,39.18
2019-02-22T11:47:43.339Z,37.30
2019-02-22T11:50:12.930Z,43.42
2019-02-22T11:52:41.367Z,36.38
2019-02-22T11:55:10.978Z,40.20
2019-02-22T11:57:39.525Z,41.45
2019-02-22T12:00:12.679Z,38.20
2019-02-22T12:02:41.795Z,38.13
2019-02-22T12:05:10.324Z,38.88
2019-02-22T12:07:38.757Z,38.02
2019-02-22T12:10:08.441Z,41.80
2019-02-22T12:12:37.153Z,44.18
2019-02-22T12:15:08.924Z,40.80
2019-02-22T12:17:37.444Z,36.83
2019-02-22T12:20:07.969Z,36.75
2019-02-22T12:22:36.733Z,39.00
2019-02-22T12:25:08.173Z,38.78
2019-02-22T12:27:36.621Z,37.60
2019-02-22T12:30:10.465Z,38.33
2019-02-22T12:32:39.670Z,37.98
2019-02-22T12:35:08.846Z,38.70
2019-02-22T12:37:37.642Z,37.23
2019-02-22T12:40:09.018Z,38.15
2019-02-22T12:42:37.878Z,32.98
2019-02-22T12:45:13.392Z,40.67
2019-02-22T12:47:41.845Z,36.75
2019-02-22T12:50:11.517Z,31.33
2019-02-22T12:52:40.048Z,31.07
2019-02-22T12:55:29.673Z,36.38
2019-02-22T12:57:58.460Z,32.63
2019-02-22T13:00:27.303Z,36.98
2019-02-22T13:03:01.942Z,35.75
2019-02-22T13:05:30.258Z,39.18
2019-02-22T13:08:02.309Z,36.50
2019-02-22T13:10:30.752Z,36.10
2019-02-22T13:12:59.674Z,37.98
2019-02-22T13:15:28.102Z,39.55
2019-02-22T13:17:56.545Z,36.17
2019-02-22T13:20:26.686Z,35.10
2019-02-22T13:22:55.257Z,34.60
2019-02-22T13:25:23.942Z,36.33
2019-02-22T13:27:52.385Z,37.45
2019-02-22T13:30:20.813Z,39.80
2019-02-22T13:32:49.257Z,34.92
2019-02-22T13:35:17.689Z,33.55
2019-02-22T13:37:46.461Z,34.23
2019-02-22T13:40:16.345Z,36.53
2019-02-22T13:42:44.857Z,36.00
2019-02-22T13:45:25.531Z,32.20
2019-02-22T13:47:44.717Z,33.45
2019-02-22T13:50:15.306Z,33.60
2019-02-22T13:52:44.011Z,36.13
2019-02-22T13:55:13.102Z,34.23
2019-02-22T13:57:41.958Z,33.23
2019-02-22T14:00:15.702Z,33.88
2019-02-22T14:02:44.214Z,31.93
2019-02-22T14:05:13.045Z,32.35
2019-02-22T14:07:52.646Z,35.45
2019-02-22T14:10:21.228Z,33.88
2019-02-22T14:12:49.670Z,30.95
2019-02-22T14:15:18.889Z,33.83
2019-02-22T14:17:49.173Z,32.70
2019-02-22T14:20:18.094Z,31.27
2019-02-22T14:22:48.048Z,34.13
2019-02-22T14:25:16.486Z,33.08
2019-02-22T14:27:46.307Z,33.95
2019-02-22T14:30:15.992Z,33.33
2019-02-22T14:32:44.677Z,31.33
2019-02-22T14:35:13.196Z,33.90
2019-02-22T14:37:41.700Z,30.97
2019-02-22T14:40:11.989Z,31.55
2019-02-22T14:42:40.416Z,31.68
2019-02-22T14:45:10.301Z,34.58
2019-02-22T14:47:39.069Z,33.10
2019-02-22T14:50:16.025Z,34.73
2019-02-22T14:52:44.460Z,34.58
2019-02-22T14:55:13.293Z,34.38
2019-02-22T14:57:44.372Z,35.40
2019-02-22T15:00:19.587Z,35.63
2019-02-22T15:02:48.017Z,32.98
2019-02-22T15:05:16.772Z,34.88
2019-02-22T15:07:45.197Z,36.68
2019-02-22T15:10:13.731Z,37.15
2019-02-22T15:12:42.437Z,40.08
2019-02-22T15:15:13.562Z,36.20
2019-02-22T15:17:43.625Z,31.50
2019-02-22T15:20:12.378Z,22.73
2019-02-22T15:22:40.808Z,11.70
2019-02-22T15:25:14.021Z,13.08
2019-02-22T15:27:42.458Z,13.55
2019-02-22T15:30:13.170Z,19.25
2019-02-22T15:32:41.658Z,18.92
2019-02-22T15:35:14.518Z,17.48
2019-02-22T15:37:43.463Z,16.30
2019-02-22T15:40:13.320Z,13.15
2019-02-22T15:42:41.808Z,10.95
2019-02-22T15:45:14.919Z,9.98
2019-02-22T15:47:43.377Z,7.25
2019-02-22T15:50:14.437Z,6.20
2019-02-22T15:52:43.176Z,5.53
2019-02-22T15:55:14.328Z,5.60
2019-02-22T15:57:42.099Z,6.12
2019-02-22T16:00:17.070Z,4.90
2019-02-22T16:02:45.498Z,5.25
2019-02-22T16:05:21.331Z,6.08
2019-02-22T16:07:50.087Z,7.60
2019-02-22T16:10:18.550Z,7.83
2019-02-22T16:12:47.254Z,9.10
2019-02-22T16:15:16.743Z,9.18
2019-02-22T16:17:45.441Z,10.32
2019-02-22T16:20:14.337Z,11.12
2019-02-22T16:22:42.843Z,19.02
2019-02-22T16:25:18.963Z,15.72
2019-02-22T16:27:41.718Z,10.93
2019-02-22T16:30:13.653Z,20.48
2019-02-22T16:32:42.460Z,20.37
2019-02-22T16:35:10.877Z,12.85
2019-02-22T16:37:39.742Z,10.45
2019-02-22T16:40:10.478Z,9.13
2019-02-22T16:42:39.275Z,11.17
2019-02-22T16:45:10.509Z,9.13
2019-02-22T16:47:40.302Z,8.23
2019-02-22T16:50:11.143Z,7.42
2019-02-22T16:52:39.950Z,7.80
2019-02-22T16:55:11.813Z,8.03
2019-02-22T16:57:40.254Z,8.05
2019-02-22T17:00:11.014Z,8.65
2019-02-22T17:02:39.518Z,8.43
2019-02-22T17:05:10.229Z,7.85
2019-02-22T17:07:38.673Z,7.80
2019-02-22T17:10:09.606Z,8.63
2019-02-22T17:12:38.348Z,7.47
2019-02-22T17:15:09.515Z,9.25
2019-02-22T17:17:38.028Z,9.50
2019-02-22T17:20:11.196Z,8.23
2019-02-22T17:22:39.971Z,9.45
2019-02-22T17:25:14.485Z,9.40
2019-02-22T17:27:42.935Z,9.58
2019-02-22T17:30:14.003Z,9.58
2019-02-22T17:32:42.522Z,8.93
2019-02-22T17:35:11.284Z,7.75
2019-02-22T17:37:39.712Z,7.65
2019-02-22T17:40:39.358Z,8.98
2019-02-22T17:43:07.792Z,9.85
2019-02-22T17:45:36.220Z,12.05
2019-02-22T17:48:04.665Z,8.73
2019-02-22T17:50:33.092Z,7.78
2019-02-22T17:53:01.560Z,10.93
2019-02-22T17:55:30.065Z,10.32
2019-02-22T17:57:58.674Z,16.62
2019-02-22T18:00:27.109Z,14.58
2019-02-22T18:02:55.577Z,11.80
2019-02-22T18:05:24.077Z,19.70
2019-02-22T18:07:52.513Z,11.22
2019-02-22T18:10:20.938Z,9.25
2019-02-22T18:12:49.638Z,10.45
2019-02-22T18:15:18.629Z,14.60
2019-02-22T18:17:47.717Z,14.05
2019-02-22T18:20:16.153Z,15.13
2019-02-22T18:22:44.893Z,14.40
2019-02-22T18:25:13.989Z,15.10
2019-02-22T18:27:42.787Z,12.10
2019-02-22T18:30:14.330Z,12.18
2019-02-22T18:32:42.758Z,19.23
2019-02-22T18:35:11.628Z,55.15
2019-02-22T18:37:40.138Z,11.28
2019-02-22T18:40:14.391Z,13.43
2019-02-22T18:42:42.821Z,27.15
2019-02-22T18:45:11.273Z,18.10
2019-02-22T18:47:39.702Z,14.25
2019-02-22T18:50:10.348Z,24.25
2019-02-22T18:52:39.062Z,17.25
2019-02-22T18:55:12.154Z,11.18
2019-02-22T18:57:40.594Z,11.85
2019-02-22T19:00:20.514Z,11.80
2019-02-22T19:02:49.516Z,11.90
2019-02-22T19:05:18.030Z,7.78
2019-02-22T19:07:46.500Z,9.65
2019-02-22T19:10:16.866Z,7.60
2019-02-22T19:12:45.302Z,6.97
2019-02-22T19:15:14.968Z,6.65
2019-02-22T19:17:43.389Z,9.70
2019-02-22T19:20:21.593Z,9.03
2019-02-22T19:22:50.020Z,9.33
2019-02-22T19:25:18.452Z,6.40
2019-02-22T19:27:46.901Z,7.65
2019-02-22T19:30:20.154Z,7.67
2019-02-22T19:32:48.585Z,6.45
2019-02-22T19:35:17.013Z,5.78
2019-02-22T19:37:45.445Z,6.50
2019-02-22T19:40:16.641Z,5.97
2019-02-22T19:42:58.481Z,5.53
2019-02-22T19:45:29.405Z,4.30
2019-02-22T19:47:57.868Z,5.03
2019-02-22T19:50:26.297Z,4.60
2019-02-22T19:52:54.729Z,4.65
2019-02-22T19:55:23.149Z,4.75
2019-02-22T19:57:51.585Z,5.30
2019-02-22T20:00:20.141Z,5.62
2019-02-22T20:02:48.587Z,5.83
2019-02-22T20:05:17.081Z,5.83
2019-02-22T20:07:45.521Z,6.58
2019-02-22T20:10:18.333Z,5.55
2019-02-22T20:12:46.450Z,6.87
2019-02-22T20:15:16.313Z,7.78
2019-02-22T20:17:53.217Z,8.00
2019-02-22T20:20:16.578Z,9.35
2019-02-22T20:22:45.301Z,10.35
2019-02-22T20:25:14.237Z,10.43
2019-02-22T20:27:42.776Z,11.33
2019-02-22T20:30:16.130Z,11.18
2019-02-22T20:32:44.622Z,10.58
2019-02-22T20:35:25.117Z,11.22
2019-02-22T20:37:53.695Z,10.82
2019-02-22T20:40:22.197Z,11.38
2019-02-22T20:42:50.642Z,10.72
2019-02-22T20:45:19.100Z,11.20
2019-02-22T20:47:47.666Z,11.50
2019-02-22T20:50:16.455Z,11.73
2019-02-22T20:52:45.243Z,11.55
2019-02-22T20:55:14.029Z,11.20
2019-02-22T20:57:42.476Z,11.75
2019-02-22T21:00:25.045Z,12.07
2019-02-22T21:02:53.809Z,14.55
2019-02-22T21:05:22.241Z,12.10
2019-02-22T21:07:50.706Z,12.20
2019-02-22T21:10:20.296Z,12.20
2019-02-22T21:12:48.801Z,12.00
2019-02-22T21:15:17.481Z,13.20
2019-02-22T21:17:46.237Z,12.95
2019-02-22T21:20:16.561Z,14.28
2019-02-22T21:22:45.017Z,12.63
2019-02-22T21:25:13.511Z,13.20
2019-02-22T21:27:42.231Z,12.82
2019-02-22T21:30:22.613Z,13.03
2019-02-22T21:32:51.128Z,13.10
2019-02-22T21:35:19.882Z,12.58
2019-02-22T21:37:48.329Z,14.10
2019-02-22T21:40:16.760Z,13.28
2019-02-22T21:42:45.252Z,12.90
2019-02-22T21:45:14.756Z,13.32
2019-02-22T21:47:53.655Z,13.18
2019-02-22T21:50:15.372Z,13.28
2019-02-22T21:52:43.813Z,14.70
2019-02-22T21:55:13.847Z,14.40
2019-02-22T21:57:42.301Z,13.53
2019-02-22T22:00:14.198Z,14.33
2019-02-22T22:02:42.643Z,13.90
2019-02-22T22:05:11.884Z,15.40
2019-02-22T22:07:40.373Z,14.53
2019-02-22T22:10:09.234Z,14.78
2019-02-22T22:12:37.744Z,15.32
2019-02-22T22:15:10.690Z,14.55
2019-02-22T22:17:39.414Z,15.03
2019-02-22T22:20:09.508Z,16.02
2019-02-22T22:22:38.305Z,15.50
2019-02-22T22:25:09.862Z,15.10
2019-02-22T22:27:38.333Z,16.12
2019-02-22T22:30:09.601Z,16.87
2019-02-22T22:32:38.034Z,16.12
2019-02-22T22:35:08.917Z,16.45
2019-02-22T22:37:57.042Z,16.97
2019-02-22T22:40:25.473Z,16.23
2019-02-22T22:42:53.921Z,16.85
2019-02-22T22:45:22.630Z,15.98
2019-02-22T22:47:51.107Z,16.17
2019-02-22T22:50:19.868Z,17.90
2019-02-22T22:52:48.309Z,17.30
2019-02-22T22:55:17.030Z,18.62
2019-02-22T22:57:45.462Z,18.07
2019-02-22T23:00:35.734Z,18.50
2019-02-22T23:03:04.797Z,18.35
2019-02-22T23:05:34.002Z,18.90
2019-02-22T23:08:02.436Z,18.73
2019-02-22T23:10:31.178Z,19.23
2019-02-22T23:12:59.681Z,20.17
2019-02-22T23:15:28.448Z,19.48
2019-02-22T23:17:57.221Z,17.90
2019-02-22T23:20:25.680Z,17.98
2019-02-22T23:22:54.370Z,17.82
2019-02-22T23:25:22.824Z,17.23
2019-02-22T23:27:51.573Z,16.90
2019-02-22T23:30:20.345Z,16.17
2019-02-22T23:32:48.838Z,15.95
2019-02-22T23:35:17.277Z,16.82
2019-02-22T23:37:45.845Z,15.18
2019-02-22T23:40:14.361Z,15.90
2019-02-22T23:42:43.070Z,15.43
2019-02-22T23:45:11.855Z,15.10
2019-02-22T23:47:40.281Z,15.75
2019-02-22T23:50:08.804Z,14.55
2019-02-22T23:52:37.230Z,13.98
2019-02-22T23:55:06.340Z,15.10
2019-02-22T23:57:35.037Z,11.78
